Time;durP1;ratioP1;P1;durP2;ratioP2;P2;SDS_P1;SDS_P2;PMS_P1;PMS_P2;Temp;Humidity;BMP_temperature;BMP_pressure;BME280_temperature;BME280_humidity;BME280_pressure;Samples;Min_cycle;Max_cycle;Signal;HPM_P1;HPM_P2
2022/09/03 00:00:27;;;;;;;;;;;29.40;91.70;;;;;;5105430;28;19983;-53
2022/09/03 00:03:03;;;;;;;;;;;29.40;91.70;;;;;;5105621;28;19908;-55
2022/09/03 00:05:36;;;;;;;;;;;29.30;91.70;;;;;;5105332;28;19918;-56
2022/09/03 00:08:24;;;;;;;;;;;29.30;91.70;;;;;;5104897;28;20219;-54
2022/09/03 00:10:55;;;;;;;;;;;29.30;91.70;;;;;;5105372;28;19920;-52
2022/09/03 00:13:39;;;;;;;;;;;29.30;91.60;;;;;;5104820;28;19915;-53
2022/09/03 00:16:09;;;;;;;;;;;29.30;91.60;;;;;;5104711;28;19924;-54
2022/09/03 00:18:40;;;;;;;;;;;29.20;91.60;;;;;;5104625;28;19954;-53
2022/09/03 00:21:09;;;;;;;;;;;29.30;91.70;;;;;;5105314;28;19912;-56
2022/09/03 00:23:39;;;;;;;;;;;29.30;91.80;;;;;;5104793;28;19961;-52
2022/09/03 00:26:11;;;;;;;;;;;29.30;91.90;;;;;;5105225;28;19920;-54
2022/09/03 00:28:41;;;;;;;;;;;29.30;92.00;;;;;;5104725;28;19908;-55
2022/09/03 00:31:11;;;;;;;;;;;29.20;91.90;;;;;;5104927;28;20104;-54
2022/09/03 00:33:38;;;;;;;;;;;29.20;91.90;;;;;;5104571;28;20192;-53
2022/09/03 00:36:18;;;;;;;;;;;29.20;91.80;;;;;;5105039;28;19951;-54
2022/09/03 00:38:44;;;;;;;;;;;29.20;91.80;;;;;;5104523;28;19909;-53
2022/09/03 00:41:22;;;;;;;;;;;29.20;91.90;;;;;;5104934;28;19912;-56
2022/09/03 00:44:05;;;;;;;;;;;29.20;91.90;;;;;;5104284;28;19912;-53
2022/09/03 00:46:40;;;;;;;;;;;29.10;92.00;;;;;;5104543;28;19909;-57
2022/09/03 00:49:13;;;;;;;;;;;29.10;92.00;;;;;;5104291;28;19904;-53
2022/09/03 00:51:51;;;;;;;;;;;29.10;92.00;;;;;;5104494;28;20243;-61
2022/09/03 00:54:39;;;;;;;;;;;29.10;92.00;;;;;;5103980;28;20074;-55
2022/09/03 00:57:24;;;;;;;;;;;29.10;92.10;;;;;;5104217;28;20222;-54
2022/09/03 01:00:06;;;;;;;;;;;29.10;92.10;;;;;;5104443;28;19912;-53
2022/09/03 01:02:44;;;;;;;;;;;29.10;92.20;;;;;;5104161;28;19908;-50
2022/09/03 01:05:21;;;;;;;;;;;29.10;92.30;;;;;;5104480;28;19912;-58
2022/09/03 01:07:47;;;;;;;;;;;29.10;92.40;;;;;;5104487;28;19915;-56
2022/09/03 01:10:24;;;;;;;;;;;29.00;92.40;;;;;;5104504;28;19951;-54
2022/09/03 01:12:53;;;;;;;;;;;29.00;92.40;;;;;;5104267;28;20184;-54
2022/09/03 01:15:44;;;;;;;;;;;29.00;92.40;;;;;;5103891;28;20263;-55
2022/09/03 01:18:13;;;;;;;;;;;29.00;92.30;;;;;;5104322;28;19912;-55
2022/09/03 01:20:39;;;;;;;;;;;29.00;92.30;;;;;;5104270;28;19908;-55
2022/09/03 01:23:19;;;;;;;;;;;29.00;92.30;;;;;;5103956;28;20099;-54
2022/09/03 01:26:00;;;;;;;;;;;29.00;92.30;;;;;;5104239;28;19912;-59
2022/09/03 01:28:29;;;;;;;;;;;28.90;92.40;;;;;;5104047;28;19971;-52
2022/09/03 01:31:11;;;;;;;;;;;28.90;92.40;;;;;;5104298;28;19991;-55
2022/09/03 01:33:49;;;;;;;;;;;28.90;92.50;;;;;;5104039;28;20100;-53
2022/09/03 01:36:21;;;;;;;;;;;28.90;92.60;;;;;;5103755;28;19912;-53
2022/09/03 01:38:51;;;;;;;;;;;28.90;92.70;;;;;;5104037;28;19909;-54
2022/09/03 01:44:17;;;;;;;;;;;28.90;92.60;;;;;;5103813;28;19918;-59
2022/09/03 01:46:45;;;;;;;;;;;28.90;92.70;;;;;;5103781;28;19984;-55
2022/09/03 01:49:27;;;;;;;;;;;28.90;92.80;;;;;;5103891;28;20192;-53
2022/09/03 01:52:02;;;;;;;;;;;28.90;92.80;;;;;;5103651;28;19912;-54
2022/09/03 01:54:44;;;;;;;;;;;28.90;92.80;;;;;;5103952;28;20154;-58
2022/09/03 01:57:32;;;;;;;;;;;28.80;92.90;;;;;;5103828;28;19915;-57
2022/09/03 02:00:01;;;;;;;;;;;28.80;93.00;;;;;;5103820;28;19912;-52
2022/09/03 02:02:27;;;;;;;;;;;28.80;93.20;;;;;;5103871;28;19908;-55
2022/09/03 02:05:01;;;;;;;;;;;28.80;93.20;;;;;;5103691;28;19975;-54
2022/09/03 02:07:32;;;;;;;;;;;28.80;93.00;;;;;;5107403;28;19942;-55
2022/09/03 02:09:59;;;;;;;;;;;28.80;93.10;;;;;;5107417;28;19912;-55
2022/09/03 02:12:28;;;;;;;;;;;28.70;93.00;;;;;;5107187;28;19908;-53
2022/09/03 02:14:54;;;;;;;;;;;28.70;93.20;;;;;;5107070;28;20191;-55
2022/09/03 02:17:21;;;;;;;;;;;28.70;93.30;;;;;;5106901;28;19977;-56
2022/09/03 02:19:47;;;;;;;;;;;28.70;93.40;;;;;;5107339;28;19912;-54
2022/09/03 02:22:13;;;;;;;;;;;28.70;93.40;;;;;;5107048;28;19915;-55
2022/09/03 02:24:39;;;;;;;;;;;28.70;93.40;;;;;;5107057;28;19912;-50
2022/09/03 02:27:05;;;;;;;;;;;28.70;93.40;;;;;;5107044;28;19924;-55
2022/09/03 02:29:31;;;;;;;;;;;28.60;93.40;;;;;;5107123;28;19947;-57
2022/09/03 02:31:58;;;;;;;;;;;28.60;93.60;;;;;;5106925;28;19912;-58
2022/09/03 02:34:24;;;;;;;;;;;28.60;93.60;;;;;;5106715;28;19912;-56
2022/09/03 02:36:51;;;;;;;;;;;28.60;93.50;;;;;;5106830;28;19951;-55
2022/09/03 02:39:17;;;;;;;;;;;28.60;93.60;;;;;;5106720;28;19919;-54
2022/09/03 02:41:43;;;;;;;;;;;28.60;93.50;;;;;;5106776;28;19983;-54
2022/09/03 02:44:15;;;;;;;;;;;28.60;93.60;;;;;;5106655;28;19918;-59
2022/09/03 02:46:51;;;;;;;;;;;28.50;93.60;;;;;;5106580;28;19903;-52
2022/09/03 02:49:17;;;;;;;;;;;28.50;93.70;;;;;;5106529;28;20178;-55
2022/09/03 02:51:43;;;;;;;;;;;28.50;93.70;;;;;;5106363;28;19912;-54
2022/09/03 02:54:11;;;;;;;;;;;28.50;93.70;;;;;;5106275;28;19916;-54
2022/09/03 02:56:37;;;;;;;;;;;28.50;93.80;;;;;;5106376;28;20200;-55
2022/09/03 02:59:04;;;;;;;;;;;28.50;94.00;;;;;;5106371;28;19904;-53
2022/09/03 03:01:31;;;;;;;;;;;28.50;93.90;;;;;;5106136;28;19908;-58
2022/09/03 03:03:59;;;;;;;;;;;28.40;93.80;;;;;;5106302;28;19927;-54
2022/09/03 03:06:26;;;;;;;;;;;28.40;93.80;;;;;;5106335;28;19908;-56
2022/09/03 03:08:54;;;;;;;;;;;28.50;93.90;;;;;;5106205;28;19940;-53
2022/09/03 03:11:21;;;;;;;;;;;28.40;93.90;;;;;;5106057;28;19912;-53
2022/09/03 03:13:47;;;;;;;;;;;28.40;93.90;;;;;;5106302;28;20204;-55
2022/09/03 03:16:14;;;;;;;;;;;28.40;93.90;;;;;;5105259;28;19920;-51
2022/09/03 03:18:40;;;;;;;;;;;28.40;94.00;;;;;;5105420;28;19922;-57
2022/09/03 03:21:09;;;;;;;;;;;28.40;94.00;;;;;;5106536;28;19912;-54
2022/09/03 03:23:35;;;;;;;;;;;28.40;94.00;;;;;;5105882;28;20185;-53
2022/09/03 03:26:02;;;;;;;;;;;28.40;94.00;;;;;;5106220;28;19918;-55
2022/09/03 03:28:32;;;;;;;;;;;28.40;94.10;;;;;;5105988;28;19915;-56
2022/09/03 03:31:08;;;;;;;;;;;28.40;94.00;;;;;;5106007;28;19958;-51
2022/09/03 03:33:34;;;;;;;;;;;28.40;94.10;;;;;;5105560;28;19908;-54
2022/09/03 03:36:06;;;;;;;;;;;28.40;94.20;;;;;;5106119;28;19954;-54
2022/09/03 03:38:32;;;;;;;;;;;28.40;94.00;;;;;;5105348;28;19967;-53
2022/09/03 03:40:58;;;;;;;;;;;28.40;94.10;;;;;;5105959;28;20175;-53
2022/09/03 03:43:25;;;;;;;;;;;28.30;93.90;;;;;;5105643;28;19908;-57
2022/09/03 03:45:57;;;;;;;;;;;28.30;93.90;;;;;;5105704;28;19973;-52
2022/09/03 03:48:24;;;;;;;;;;;28.30;93.90;;;;;;5105668;28;19980;-53
2022/09/03 03:50:52;;;;;;;;;;;28.30;93.80;;;;;;5105808;28;19912;-54
2022/09/03 03:53:18;;;;;;;;;;;28.30;93.80;;;;;;5105109;28;19908;-53
2022/09/03 03:56:04;;;;;;;;;;;28.30;93.90;;;;;;5105896;28;19919;-56
2022/09/03 03:58:31;;;;;;;;;;;28.30;93.90;;;;;;5104658;28;19979;-55
2022/09/03 04:01:08;;;;;;;;;;;28.30;93.90;;;;;;5105537;28;19918;-57
2022/09/03 04:03:35;;;;;;;;;;;28.30;93.90;;;;;;5105191;28;20218;-52
2022/09/03 04:06:01;;;;;;;;;;;28.20;93.80;;;;;;5105527;28;19927;-54
2022/09/03 04:08:28;;;;;;;;;;;28.20;93.90;;;;;;5105008;28;19911;-55
2022/09/03 04:10:58;;;;;;;;;;;28.20;94.10;;;;;;5105427;28;19916;-58
2022/09/03 04:13:24;;;;;;;;;;;28.20;93.90;;;;;;5105223;28;19908;-53
2022/09/03 04:15:50;;;;;;;;;;;28.20;93.90;;;;;;5104800;28;19983;-53
2022/09/03 04:18:16;;;;;;;;;;;28.20;93.70;;;;;;5105043;28;19939;-54
2022/09/03 04:20:43;;;;;;;;;;;28.20;93.60;;;;;;5105267;28;20200;-53
2022/09/03 04:23:09;;;;;;;;;;;28.20;93.50;;;;;;5104735;28;19974;-56
2022/09/03 04:25:35;;;;;;;;;;;28.20;93.50;;;;;;5105133;28;19943;-52
2022/09/03 04:28:03;;;;;;;;;;;28.20;93.50;;;;;;5104293;28;19908;-54
2022/09/03 04:30:29;;;;;;;;;;;28.10;93.50;;;;;;5105031;28;19916;-56
2022/09/03 04:32:55;;;;;;;;;;;28.10;93.50;;;;;;5104612;28;19912;-60
2022/09/03 04:35:23;;;;;;;;;;;28.10;93.50;;;;;;5104430;28;20152;-55
2022/09/03 04:37:49;;;;;;;;;;;28.10;93.50;;;;;;5104629;28;19904;-58
2022/09/03 04:40:15;;;;;;;;;;;28.10;93.50;;;;;;5104858;28;19916;-56
2022/09/03 04:42:41;;;;;;;;;;;28.10;93.40;;;;;;5104420;28;19949;-56
2022/09/03 04:45:08;;;;;;;;;;;28.10;93.40;;;;;;5104704;28;19939;-54
2022/09/03 04:47:36;;;;;;;;;;;28.00;93.40;;;;;;5104631;28;19904;-55
2022/09/03 04:50:03;;;;;;;;;;;28.10;93.40;;;;;;5104517;28;19918;-58
2022/09/03 04:52:30;;;;;;;;;;;28.00;93.40;;;;;;5104348;28;19912;-53
2022/09/03 04:54:57;;;;;;;;;;;28.00;93.40;;;;;;5104590;28;20014;-53
2022/09/03 04:57:23;;;;;;;;;;;28.00;93.40;;;;;;5104474;28;19908;-57
2022/09/03 04:59:49;;;;;;;;;;;28.00;93.50;;;;;;5104728;28;19919;-56
2022/09/03 05:02:15;;;;;;;;;;;27.90;93.50;;;;;;5104223;28;20192;-55
2022/09/03 05:04:41;;;;;;;;;;;27.90;93.50;;;;;;5104406;28;20088;-54
2022/09/03 05:07:07;;;;;;;;;;;27.90;93.60;;;;;;5104401;28;19908;-55
2022/09/03 05:09:34;;;;;;;;;;;27.90;93.60;;;;;;5104488;28;20133;-56
2022/09/03 05:12:00;;;;;;;;;;;27.90;93.60;;;;;;5104172;28;19915;-55
2022/09/03 05:14:26;;;;;;;;;;;27.90;93.60;;;;;;5104152;28;19920;-55
2022/09/03 05:16:52;;;;;;;;;;;27.90;93.60;;;;;;5104172;28;19908;-54
2022/09/03 05:19:18;;;;;;;;;;;27.90;93.50;;;;;;5104196;28;19983;-53
2022/09/03 05:21:44;;;;;;;;;;;27.80;93.60;;;;;;5104041;28;19911;-57
2022/09/03 05:24:11;;;;;;;;;;;27.80;93.60;;;;;;5104283;28;19908;-53
2022/09/03 05:26:38;;;;;;;;;;;27.80;93.60;;;;;;5104054;28;19930;-57
2022/09/03 05:29:08;;;;;;;;;;;27.80;93.60;;;;;;5103891;28;19911;-53
2022/09/03 05:31:36;;;;;;;;;;;27.80;93.50;;;;;;5103946;28;19949;-54
2022/09/03 05:34:03;;;;;;;;;;;27.80;93.50;;;;;;5103947;28;19908;-53
2022/09/03 05:36:30;;;;;;;;;;;27.80;93.50;;;;;;5103879;28;19997;-55
2022/09/03 05:38:57;;;;;;;;;;;27.80;93.60;;;;;;5103955;28;19991;-60
2022/09/03 05:41:24;;;;;;;;;;;27.70;93.50;;;;;;5106638;28;19915;-53
2022/09/03 05:43:54;;;;;;;;;;;27.70;93.60;;;;;;5107641;28;19908;-60
2022/09/03 05:46:25;;;;;;;;;;;27.70;93.60;;;;;;5107802;28;19908;-55
2022/09/03 05:48:51;;;;;;;;;;;27.70;93.50;;;;;;5107574;28;19904;-52
2022/09/03 05:51:17;;;;;;;;;;;27.70;93.50;;;;;;5107728;28;19919;-55
2022/09/03 05:53:45;;;;;;;;;;;27.70;93.50;;;;;;5107617;28;20018;-53
2022/09/03 05:56:12;;;;;;;;;;;27.70;93.50;;;;;;5108058;28;19916;-55
2022/09/03 05:58:41;;;;;;;;;;;27.70;93.50;;;;;;5107728;28;20097;-58
2022/09/03 06:01:10;;;;;;;;;;;27.70;93.60;;;;;;5107770;28;19925;-56
2022/09/03 06:03:36;;;;;;;;;;;27.60;93.70;;;;;;5107336;28;19935;-52
2022/09/03 06:06:03;;;;;;;;;;;27.70;93.60;;;;;;5107933;28;19920;-54
2022/09/03 06:08:30;;;;;;;;;;;27.70;93.60;;;;;;5107418;28;19908;-53
2022/09/03 06:10:59;;;;;;;;;;;27.60;93.60;;;;;;5107618;28;19918;-51
2022/09/03 06:13:25;;;;;;;;;;;27.60;93.60;;;;;;5107289;28;19945;-55
2022/09/03 06:15:59;;;;;;;;;;;27.60;93.60;;;;;;5107262;28;19994;-55
2022/09/03 06:18:27;;;;;;;;;;;27.60;93.60;;;;;;5107156;28;19962;-54
2022/09/03 06:20:56;;;;;;;;;;;27.60;93.70;;;;;;5106765;28;20253;-52
2022/09/03 06:23:22;;;;;;;;;;;27.60;93.70;;;;;;5107160;28;19904;-53
2022/09/03 06:25:58;;;;;;;;;;;27.60;93.70;;;;;;5107444;28;19912;-56
2022/09/03 06:28:26;;;;;;;;;;;27.60;93.70;;;;;;5107015;28;19912;-56
2022/09/03 06:30:52;;;;;;;;;;;27.60;93.70;;;;;;5107301;28;19915;-55
2022/09/03 06:33:18;;;;;;;;;;;27.50;93.70;;;;;;5106811;28;20104;-54
2022/09/03 06:35:45;;;;;;;;;;;27.60;93.80;;;;;;5107295;28;19912;-58
2022/09/03 06:38:12;;;;;;;;;;;27.50;93.80;;;;;;5106938;28;20155;-53
2022/09/03 06:40:38;;;;;;;;;;;27.60;93.90;;;;;;5106995;28;19919;-54
2022/09/03 06:43:05;;;;;;;;;;;27.50;93.80;;;;;;5106760;28;19904;-53
2022/09/03 06:45:31;;;;;;;;;;;27.50;93.80;;;;;;5107000;28;19998;-54
2022/09/03 06:47:57;;;;;;;;;;;27.60;93.90;;;;;;5106531;28;20097;-54
2022/09/03 06:50:23;;;;;;;;;;;27.50;93.90;;;;;;5106875;28;19915;-53
2022/09/03 06:52:55;;;;;;;;;;;27.50;93.90;;;;;;5106548;28;19935;-54
2022/09/03 06:55:22;;;;;;;;;;;27.50;93.90;;;;;;5106798;28;20069;-53
2022/09/03 06:57:49;;;;;;;;;;;27.50;94.00;;;;;;5106416;28;19908;-53
2022/09/03 07:00:16;;;;;;;;;;;27.50;94.00;;;;;;5106609;28;19923;-53
2022/09/03 07:02:43;;;;;;;;;;;27.50;94.00;;;;;;5106239;28;19910;-56
2022/09/03 07:05:10;;;;;;;;;;;27.50;94.00;;;;;;5106505;28;19983;-54
2022/09/03 07:07:37;;;;;;;;;;;27.50;94.00;;;;;;5106382;28;19967;-54
2022/09/03 07:10:04;;;;;;;;;;;27.50;94.00;;;;;;5106267;28;20099;-54
2022/09/03 07:12:33;;;;;;;;;;;27.50;94.00;;;;;;5106098;28;20139;-54
2022/09/03 07:14:59;;;;;;;;;;;27.50;94.10;;;;;;5106141;28;19977;-55
2022/09/03 07:17:26;;;;;;;;;;;27.50;94.10;;;;;;5106034;28;19904;-56
2022/09/03 07:19:52;;;;;;;;;;;27.50;94.10;;;;;;5106387;28;19912;-54
2022/09/03 07:22:18;;;;;;;;;;;27.40;94.10;;;;;;5105998;28;19908;-55
2022/09/03 07:24:46;;;;;;;;;;;27.50;94.20;;;;;;5105906;28;19911;-54
2022/09/03 07:27:12;;;;;;;;;;;27.40;94.20;;;;;;5105776;28;19908;-56
2022/09/03 07:29:38;;;;;;;;;;;27.40;94.20;;;;;;5106081;28;20192;-61
2022/09/03 07:32:05;;;;;;;;;;;27.40;94.30;;;;;;5105638;28;19908;-55
2022/09/03 07:34:33;;;;;;;;;;;27.40;94.30;;;;;;5105802;28;19912;-55
2022/09/03 07:36:59;;;;;;;;;;;27.50;94.40;;;;;;5105667;28;19904;-56
2022/09/03 07:39:25;;;;;;;;;;;27.40;94.40;;;;;;5105628;28;20092;-60
2022/09/03 07:41:52;;;;;;;;;;;27.40;94.40;;;;;;5105663;28;19904;-56
2022/09/03 07:44:19;;;;;;;;;;;27.40;94.40;;;;;;5105543;28;19912;-59
2022/09/03 07:46:46;;;;;;;;;;;27.40;94.50;;;;;;5105292;28;19905;-54
2022/09/03 07:49:12;;;;;;;;;;;27.40;94.40;;;;;;5105348;28;20193;-55
2022/09/03 07:51:39;;;;;;;;;;;27.40;94.40;;;;;;5105372;28;20104;-57
2022/09/03 07:54:08;;;;;;;;;;;27.40;94.50;;;;;;5087304;28;19904;-54
2022/09/03 07:56:34;;;;;;;;;;;27.40;94.40;;;;;;5105456;28;19947;-61
2022/09/03 07:59:02;;;;;;;;;;;27.30;94.40;;;;;;5105282;28;19904;-56
2022/09/03 08:01:30;;;;;;;;;;;27.40;94.50;;;;;;5104849;28;19908;-51
2022/09/03 08:03:56;;;;;;;;;;;27.40;94.50;;;;;;5104595;28;19908;-53
2022/09/03 08:06:24;;;;;;;;;;;27.30;94.50;;;;;;5105120;28;19909;-53
2022/09/03 08:08:56;;;;;;;;;;;27.40;94.60;;;;;;5104992;28;19979;-54
2022/09/03 08:11:22;;;;;;;;;;;27.40;94.60;;;;;;5104968;28;19912;-54
2022/09/03 08:13:53;;;;;;;;;;;27.40;94.60;;;;;;5104891;28;19908;-54
2022/09/03 08:16:19;;;;;;;;;;;27.30;94.60;;;;;;5104665;28;19961;-55
2022/09/03 08:18:46;;;;;;;;;;;27.30;94.60;;;;;;5104940;28;19908;-58
2022/09/03 08:21:14;;;;;;;;;;;27.30;94.60;;;;;;5104923;28;19912;-54
2022/09/03 08:23:41;;;;;;;;;;;27.30;94.60;;;;;;5104682;28;20246;-54
2022/09/03 08:26:08;;;;;;;;;;;27.30;94.70;;;;;;5105376;28;19916;-53
2022/09/03 08:28:35;;;;;;;;;;;27.30;94.80;;;;;;5104833;28;19908;-53
2022/09/03 08:31:11;;;;;;;;;;;27.30;94.80;;;;;;5105051;28;19912;-54
2022/09/03 08:33:41;;;;;;;;;;;27.30;94.80;;;;;;5104802;28;19908;-53
2022/09/03 08:36:14;;;;;;;;;;;27.30;94.80;;;;;;5105104;28;19916;-54
2022/09/03 08:38:42;;;;;;;;;;;27.30;94.90;;;;;;5104863;28;20242;-55
2022/09/03 08:41:15;;;;;;;;;;;27.30;94.90;;;;;;5105059;28;19988;-54
2022/09/03 08:43:47;;;;;;;;;;;27.30;95.00;;;;;;5104449;28;19915;-54
2022/09/03 08:46:13;;;;;;;;;;;27.30;95.00;;;;;;5104667;28;19962;-54
2022/09/03 08:48:39;;;;;;;;;;;27.30;95.10;;;;;;5104407;28;19915;-56
2022/09/03 08:51:06;;;;;;;;;;;27.30;95.10;;;;;;5104817;28;20207;-59
2022/09/03 08:53:44;;;;;;;;;;;27.30;95.10;;;;;;5104386;28;19953;-55
2022/09/03 08:56:12;;;;;;;;;;;27.30;95.00;;;;;;5104809;28;20082;-55
2022/09/03 08:58:42;;;;;;;;;;;27.30;95.10;;;;;;5104370;28;19980;-57
2022/09/03 09:01:10;;;;;;;;;;;27.30;95.10;;;;;;5104664;28;20134;-59
2022/09/03 09:03:56;;;;;;;;;;;27.30;95.00;;;;;;5104080;28;20204;-56
2022/09/03 09:06:35;;;;;;;;;;;27.30;95.00;;;;;;5104309;28;20275;-54
2022/09/03 09:09:21;;;;;;;;;;;27.30;95.10;;;;;;5104368;28;20092;-54
2022/09/03 09:11:50;;;;;;;;;;;27.20;95.00;;;;;;5104309;28;19954;-54
2022/09/03 09:14:28;;;;;;;;;;;27.20;95.00;;;;;;5105001;28;19975;-54
2022/09/03 09:17:04;;;;;;;;;;;27.20;95.10;;;;;;5108263;28;19916;-56
2022/09/03 09:19:48;;;;;;;;;;;27.20;95.10;;;;;;5108429;28;19912;-54
2022/09/03 09:22:31;;;;;;;;;;;27.30;95.10;;;;;;5108186;28;19912;-55
2022/09/03 09:24:59;;;;;;;;;;;27.30;95.10;;;;;;5108477;28;19920;-54
2022/09/03 09:27:27;;;;;;;;;;;27.30;95.30;;;;;;5108324;28;19943;-53
2022/09/03 09:29:54;;;;;;;;;;;27.20;95.40;;;;;;5108209;28;19965;-53
2022/09/03 09:32:20;;;;;;;;;;;27.20;95.30;;;;;;5108090;28;19931;-54
2022/09/03 09:34:46;;;;;;;;;;;27.20;95.40;;;;;;5108192;28;19954;-53
2022/09/03 09:37:14;;;;;;;;;;;27.20;95.50;;;;;;5108005;28;19978;-53
2022/09/03 09:39:41;;;;;;;;;;;27.20;95.50;;;;;;5108093;28;19955;-56
2022/09/03 09:42:09;;;;;;;;;;;27.20;95.50;;;;;;5107986;28;19915;-53
2022/09/03 09:44:36;;;;;;;;;;;27.20;95.60;;;;;;5107922;28;19950;-54
2022/09/03 09:47:07;;;;;;;;;;;27.20;95.50;;;;;;5107945;28;19915;-54
2022/09/03 09:49:42;;;;;;;;;;;27.20;95.60;;;;;;5107845;28;19912;-55
2022/09/03 09:52:13;;;;;;;;;;;27.20;95.60;;;;;;5107499;28;20168;-60
2022/09/03 09:54:40;;;;;;;;;;;27.20;95.70;;;;;;5107918;28;19917;-54
2022/09/03 09:57:13;;;;;;;;;;;27.20;95.60;;;;;;5107718;28;19908;-56
2022/09/03 09:59:39;;;;;;;;;;;27.20;95.60;;;;;;5107967;28;19920;-59
2022/09/03 10:02:05;;;;;;;;;;;27.10;95.50;;;;;;5107433;28;19954;-57
2022/09/03 10:04:31;;;;;;;;;;;27.10;95.50;;;;;;5107352;28;19912;-54
2022/09/03 10:07:03;;;;;;;;;;;27.20;95.60;;;;;;5107430;28;19908;-54
2022/09/03 10:09:30;;;;;;;;;;;27.10;95.50;;;;;;5107631;28;20223;-53
2022/09/03 10:12:10;;;;;;;;;;;27.20;95.60;;;;;;5107140;28;19969;-56
2022/09/03 10:14:38;;;;;;;;;;;27.10;95.50;;;;;;5107324;28;19916;-57
2022/09/03 10:17:12;;;;;;;;;;;27.10;95.50;;;;;;5105323;28;19915;-54
2022/09/03 10:22:46;;;;;;;;;;;27.10;95.50;;;;;;5075799;28;20298;-54
2022/09/03 10:25:15;;;;;;;;;;;27.10;95.50;;;;;;5107274;28;19912;-57
2022/09/03 10:27:44;;;;;;;;;;;27.10;95.50;;;;;;5106310;28;19914;-58
2022/09/03 10:30:14;;;;;;;;;;;27.10;95.50;;;;;;5107275;28;19970;-55
2022/09/03 10:32:45;;;;;;;;;;;27.10;95.40;;;;;;5107062;28;20210;-56
2022/09/03 10:35:11;;;;;;;;;;;27.10;95.40;;;;;;5106947;28;19912;-55
2022/09/03 10:37:40;;;;;;;;;;;27.00;95.50;;;;;;5106837;28;20134;-54
2022/09/03 10:40:06;;;;;;;;;;;27.10;95.50;;;;;;5107015;28;19912;-54
2022/09/03 10:42:36;;;;;;;;;;;27.10;95.50;;;;;;5106695;28;19908;-55
2022/09/03 10:45:08;;;;;;;;;;;27.10;95.50;;;;;;5107015;28;19985;-58
2022/09/03 10:47:54;;;;;;;;;;;27.10;95.50;;;;;;5106620;28;19912;-53
2022/09/03 10:50:28;;;;;;;;;;;27.10;95.50;;;;;;5106914;28;20215;-53
2022/09/03 10:53:12;;;;;;;;;;;27.10;95.50;;;;;;5106496;28;19919;-55
2022/09/03 10:55:47;;;;;;;;;;;27.10;95.80;;;;;;5106877;28;20192;-55
2022/09/03 10:58:16;;;;;;;;;;;27.00;95.60;;;;;;5106439;28;19908;-54
2022/09/03 11:00:48;;;;;;;;;;;27.00;95.60;;;;;;5106822;28;19951;-59
2022/09/03 11:03:14;;;;;;;;;;;27.00;95.60;;;;;;5106387;28;19908;-53
2022/09/03 11:05:46;;;;;;;;;;;27.00;95.60;;;;;;5106720;28;19912;-54
2022/09/03 11:08:20;;;;;;;;;;;27.00;95.70;;;;;;5106214;28;19911;-53
2022/09/03 11:10:53;;;;;;;;;;;27.00;95.70;;;;;;5106736;28;19948;-54
2022/09/03 11:13:28;;;;;;;;;;;27.00;95.70;;;;;;5106090;28;19912;-53
2022/09/03 11:16:10;;;;;;;;;;;27.10;95.80;;;;;;5106170;28;19920;-56
2022/09/03 11:18:42;;;;;;;;;;;27.00;95.80;;;;;;5106306;28;20177;-57
2022/09/03 11:21:10;;;;;;;;;;;27.10;95.90;;;;;;5106563;28;19954;-55
2022/09/03 11:23:39;;;;;;;;;;;27.10;95.90;;;;;;5105816;28;19908;-53
2022/09/03 11:26:07;;;;;;;;;;;27.10;95.90;;;;;;5106378;28;20193;-55
2022/09/03 11:28:33;;;;;;;;;;;27.20;95.90;;;;;;5105850;28;19908;-55
2022/09/03 11:31:02;;;;;;;;;;;27.20;95.90;;;;;;5106081;28;19912;-58
2022/09/03 11:33:28;;;;;;;;;;;27.20;95.80;;;;;;5105844;28;19916;-55
2022/09/03 11:35:56;;;;;;;;;;;27.20;95.70;;;;;;5106283;28;19962;-56
2022/09/03 11:38:27;;;;;;;;;;;27.30;95.80;;;;;;5104566;28;19950;-58
2022/09/03 11:41:11;;;;;;;;;;;27.30;95.70;;;;;;5106026;28;19919;-54
2022/09/03 11:43:38;;;;;;;;;;;27.30;95.80;;;;;;5105428;28;19908;-53
2022/09/03 11:46:13;;;;;;;;;;;27.30;95.70;;;;;;5105989;28;19919;-58
2022/09/03 11:48:43;;;;;;;;;;;27.30;95.70;;;;;;5105439;28;19908;-54
2022/09/03 11:51:17;;;;;;;;;;;27.30;95.80;;;;;;5105689;28;20074;-55
2022/09/03 11:53:52;;;;;;;;;;;27.30;95.70;;;;;;5105320;28;19979;-56
2022/09/03 11:56:19;;;;;;;;;;;27.30;95.70;;;;;;5105296;28;20139;-56
2022/09/03 11:58:45;;;;;;;;;;;27.30;95.70;;;;;;5105281;28;20196;-55
2022/09/03 12:01:13;;;;;;;;;;;27.30;95.80;;;;;;5105611;28;19919;-54
2022/09/03 12:03:44;;;;;;;;;;;27.30;95.70;;;;;;5105052;28;19908;-57
2022/09/03 12:06:33;;;;;;;;;;;27.30;95.80;;;;;;5105738;28;20169;-53
2022/09/03 12:09:21;;;;;;;;;;;27.30;95.70;;;;;;5094375;28;20167;-54
2022/09/03 12:11:59;;;;;;;;;;;27.30;95.80;;;;;;5104989;28;19975;-56
2022/09/03 12:14:43;;;;;;;;;;;27.30;95.70;;;;;;5105263;28;19927;-55
2022/09/03 12:17:09;;;;;;;;;;;27.30;95.70;;;;;;5104925;28;20112;-57
2022/09/03 12:19:41;;;;;;;;;;;27.40;95.70;;;;;;5104992;28;19912;-54
2022/09/03 12:22:15;;;;;;;;;;;27.40;95.70;;;;;;5104874;28;19912;-54
2022/09/03 12:24:43;;;;;;;;;;;27.40;95.70;;;;;;5104848;28;19912;-56
2022/09/03 12:27:11;;;;;;;;;;;27.40;95.70;;;;;;5104848;28;20100;-54
2022/09/03 12:29:39;;;;;;;;;;;27.50;95.70;;;;;;5104251;28;19916;-53
2022/09/03 12:32:07;;;;;;;;;;;27.50;95.50;;;;;;5104512;28;19912;-54
2022/09/03 12:34:33;;;;;;;;;;;27.50;95.40;;;;;;5104912;28;19912;-54
2022/09/03 12:36:59;;;;;;;;;;;27.50;95.50;;;;;;5104734;28;19944;-57
2022/09/03 12:39:26;;;;;;;;;;;27.50;95.50;;;;;;5104531;28;19908;-56
2022/09/03 12:42:00;;;;;;;;;;;27.60;95.50;;;;;;5104685;28;19908;-54
2022/09/03 12:44:28;;;;;;;;;;;27.60;95.40;;;;;;5104611;28;19912;-55
2022/09/03 12:47:04;;;;;;;;;;;27.60;95.30;;;;;;5104301;28;19908;-55
2022/09/03 12:49:34;;;;;;;;;;;27.60;95.20;;;;;;5104318;28;19912;-56
2022/09/03 12:52:02;;;;;;;;;;;27.60;95.40;;;;;;5104240;28;19919;-55
2022/09/03 12:54:28;;;;;;;;;;;27.60;95.40;;;;;;5104818;28;19912;-56
2022/09/03 12:56:57;;;;;;;;;;;27.70;95.30;;;;;;5104344;28;19911;-58
2022/09/03 12:59:24;;;;;;;;;;;27.60;95.20;;;;;;5104445;28;19987;-58
2022/09/03 13:02:02;;;;;;;;;;;27.70;95.20;;;;;;5104463;28;19915;-56
2022/09/03 13:04:31;;;;;;;;;;;27.70;95.20;;;;;;5104462;28;19919;-59
2022/09/03 13:07:06;;;;;;;;;;;27.70;95.20;;;;;;5104472;28;20131;-54
2022/09/03 13:09:34;;;;;;;;;;;27.70;95.10;;;;;;5104571;28;19919;-58
2022/09/03 13:12:04;;;;;;;;;;;27.70;95.10;;;;;;5104200;28;19975;-53
2022/09/03 13:14:50;;;;;;;;;;;27.80;95.10;;;;;;5104499;28;20003;-58
2022/09/03 13:17:19;;;;;;;;;;;27.80;95.00;;;;;;5103638;28;19921;-56
2022/09/03 13:20:03;;;;;;;;;;;27.80;95.20;;;;;;5104472;28;19934;-53
2022/09/03 13:22:47;;;;;;;;;;;27.80;95.00;;;;;;5104145;28;19943;-55
2022/09/03 13:25:40;;;;;;;;;;;27.80;94.90;;;;;;5104492;28;20188;-54
2022/09/03 13:28:15;;;;;;;;;;;27.90;94.90;;;;;;5073216;28;19908;-56
2022/09/03 13:30:41;;;;;;;;;;;27.90;94.90;;;;;;5104478;28;19949;-54
2022/09/03 13:33:39;;;;;;;;;;;28.00;95.00;;;;;;5103751;28;19979;-55
2022/09/03 13:36:13;;;;;;;;;;;27.90;94.80;;;;;;5059386;28;19949;-51
2022/09/03 13:38:41;;;;;;;;;;;27.90;94.80;;;;;;5103974;28;19908;-55
2022/09/03 13:41:20;;;;;;;;;;;28.00;94.80;;;;;;5104532;28;19947;-54
2022/09/03 13:44:04;;;;;;;;;;;28.00;94.70;;;;;;5103943;28;20216;-54
2022/09/03 13:46:33;;;;;;;;;;;28.00;94.60;;;;;;5104080;28;19912;-52
2022/09/03 13:51:58;;;;;;;;;;;28.10;94.50;;;;;;5103956;28;19927;-54
2022/09/03 13:54:30;;;;;;;;;;;28.10;94.60;;;;;;5104089;28;19924;-53
2022/09/03 13:57:00;;;;;;;;;;;28.10;94.50;;;;;;5103738;28;20100;-55
2022/09/03 13:59:29;;;;;;;;;;;28.10;94.50;;;;;;5103830;28;20107;-54
2022/09/03 14:02:04;;;;;;;;;;;28.20;94.50;;;;;;5105585;28;19915;-54
2022/09/03 14:04:42;;;;;;;;;;;28.20;94.40;;;;;;5107712;28;19918;-53
2022/09/03 14:07:12;;;;;;;;;;;28.20;94.30;;;;;;5107385;28;19984;-55
2022/09/03 14:09:48;;;;;;;;;;;28.20;94.30;;;;;;5107659;28;20184;-58
2022/09/03 14:12:34;;;;;;;;;;;28.20;94.30;;;;;;5107159;28;19919;-57
2022/09/03 14:15:05;;;;;;;;;;;28.20;94.30;;;;;;5107003;28;19919;-60
2022/09/03 14:17:47;;;;;;;;;;;28.30;94.30;;;;;;5107313;28;19938;-53
2022/09/03 14:20:25;;;;;;;;;;;28.30;94.10;;;;;;5107433;28;19958;-58
2022/09/03 14:22:54;;;;;;;;;;;28.30;94.10;;;;;;5107229;28;19912;-54
2022/09/03 14:25:21;;;;;;;;;;;28.40;94.10;;;;;;5107352;28;19979;-55
2022/09/03 14:27:48;;;;;;;;;;;28.30;94.10;;;;;;5107182;28;19980;-54
2022/09/03 14:30:19;;;;;;;;;;;28.40;94.10;;;;;;5107321;28;20160;-54
2022/09/03 14:32:59;;;;;;;;;;;28.40;94.00;;;;;;5106907;28;19952;-56
2022/09/03 14:35:43;;;;;;;;;;;28.40;94.00;;;;;;5107312;28;20024;-60
2022/09/03 14:38:22;;;;;;;;;;;28.40;93.90;;;;;;5106899;28;19915;-53
2022/09/03 14:41:11;;;;;;;;;;;28.40;93.80;;;;;;5107258;28;19912;-53
2022/09/03 14:43:49;;;;;;;;;;;28.40;93.60;;;;;;5105791;28;19915;-54